Terminal Aerodrome Forecast
Issued by NWS Jackson, KY

Home | Current Version | Previous Version | Text Only | Print | Product List | Glossary On
Versions: 1 2 3 4 5 6 7 8 9 10 11 12 13 14 15 16 17
000
FTUS43 KJKL 190247 AAA
TAFJKL
TAF AMD
KJKL 190247Z 1903/1924 00000KT 2SM BR SCT001 BKN050
      TEMPO 1903/1907 1/2SM FG BKN001
     FM190700 00000KT 3SM BR BKN005
     FM191200 VRB03KT P6SM VCTS SCT050CB OVC100
     FM191600 23008KT P6SM -SHRA VCTS BKN050CB=

USA.gov is the U.S. government's official web portal to all federal, state and local government web resources and services.